createdAt,value
2022-09-14T00:02:21.665Z,5.18
2022-09-14T00:05:08.424Z,6.73
2022-09-14T00:07:54.571Z,4.62
2022-09-14T00:10:42.151Z,7.90
2022-09-14T00:13:28.249Z,5.45
2022-09-14T00:16:18.335Z,5.20
2022-09-14T00:19:06.787Z,5.32
2022-09-14T00:21:57.802Z,5.17
2022-09-14T00:24:43.720Z,6.28
2022-09-14T00:27:30.002Z,6.65
2022-09-14T00:30:15.794Z,5.15
2022-09-14T00:33:02.245Z,5.43
2022-09-14T00:35:48.233Z,7.00
2022-09-14T00:38:35.756Z,5.40
2022-09-14T00:41:27.332Z,7.18
2022-09-14T00:44:13.628Z,5.18
2022-09-14T00:47:01.551Z,6.05
2022-09-14T00:49:48.035Z,4.87
2022-09-14T00:52:35.552Z,6.57
2022-09-14T00:55:23.625Z,5.75
2022-09-14T00:58:09.534Z,6.72
2022-09-14T01:00:55.924Z,6.80
2022-09-14T01:03:42.214Z,6.70
2022-09-14T01:06:46.888Z,5.70
2022-09-14T01:09:41.732Z,6.03
2022-09-14T01:12:44.670Z,6.80
2022-09-14T01:15:52.316Z,6.10
2022-09-14T01:18:51.833Z,5.70
2022-09-14T01:21:38.715Z,5.20
2022-09-14T01:24:46.555Z,5.25
2022-09-14T01:27:43.989Z,6.07
2022-09-14T01:30:32.148Z,5.32
2022-09-14T01:33:27.218Z,5.47
2022-09-14T01:36:15.191Z,5.55
2022-09-14T01:39:01.847Z,5.90
2022-09-14T01:41:49.781Z,6.43
2022-09-14T01:44:37.619Z,6.87
2022-09-14T01:47:31.755Z,6.62
2022-09-14T01:50:22.539Z,5.18
2022-09-14T01:53:19.678Z,7.20
2022-09-14T01:56:26.809Z,6.50
2022-09-14T01:59:17.342Z,5.78
2022-09-14T02:02:07.733Z,5.60
2022-09-14T02:05:02.714Z,6.75
2022-09-14T02:07:48.660Z,6.20
2022-09-14T02:10:35.485Z,5.10
2022-09-14T02:13:22.191Z,6.17
2022-09-14T02:16:08.792Z,7.65
2022-09-14T02:18:55.108Z,7.65
2022-09-14T02:21:41.501Z,5.57
2022-09-14T02:24:28.358Z,6.00
2022-09-14T02:27:15.211Z,6.45
2022-09-14T02:30:00.920Z,6.72
2022-09-14T02:33:08.495Z,6.35
2022-09-14T02:35:56.081Z,8.27
2022-09-14T04:45:00.366Z,5.75
2022-09-14T04:47:46.933Z,5.37
2022-09-14T04:50:33.110Z,6.57
2022-09-14T04:53:21.600Z,8.77
2022-09-14T04:56:09.913Z,9.35
2022-09-14T04:59:01.938Z,7.05
2022-09-14T05:01:49.623Z,7.40
2022-09-14T05:04:35.990Z,11.10
2022-09-14T05:07:21.850Z,8.73
2022-09-14T05:10:08.476Z,11.40
2022-09-14T05:12:54.503Z,11.27
2022-09-14T05:15:42.622Z,12.15
2022-09-14T05:18:28.738Z,8.00
2022-09-14T05:21:17.650Z,7.15
2022-09-14T05:24:08.288Z,8.02
2022-09-14T05:26:59.461Z,12.90
2022-09-14T05:29:46.935Z,7.47
2022-09-14T05:32:33.124Z,9.02
2022-09-14T05:35:19.192Z,8.55
2022-09-14T05:38:05.364Z,9.43
2022-09-14T05:40:55.096Z,7.97
2022-09-14T05:43:42.382Z,8.60
2022-09-14T05:46:28.610Z,11.98
2022-09-14T05:49:14.776Z,8.10
2022-09-14T05:52:00.962Z,10.88
2022-09-14T05:54:47.531Z,8.05
2022-09-14T05:57:33.859Z,8.10
2022-09-14T06:00:21.687Z,6.80
2022-09-14T06:03:08.160Z,13.52
2022-09-14T06:05:57.899Z,11.10
2022-09-14T06:08:44.645Z,9.93
2022-09-14T06:11:33.377Z,7.70
2022-09-14T06:14:20.858Z,7.25
2022-09-14T06:17:06.885Z,8.13
2022-09-14T06:19:53.268Z,12.07
2022-09-14T06:22:39.171Z,10.88
2022-09-14T06:25:25.554Z,8.68
2022-09-14T06:28:11.544Z,8.05
2022-09-14T06:30:58.364Z,9.32
2022-09-14T06:33:45.722Z,9.07
2022-09-14T06:36:32.261Z,8.02
2022-09-14T06:39:18.104Z,8.02
2022-09-14T06:42:04.911Z,9.07
2022-09-14T06:44:50.823Z,7.95
2022-09-14T06:47:37.283Z,10.00
2022-09-14T06:50:23.310Z,10.00
2022-09-14T06:53:09.557Z,8.45
2022-09-14T06:55:59.138Z,13.60
2022-09-14T06:58:45.527Z,9.80
2022-09-14T07:01:31.959Z,9.65
2022-09-14T07:04:18.264Z,9.68
2022-09-14T07:07:04.143Z,12.13
2022-09-14T07:09:50.470Z,7.80
2022-09-14T07:12:36.426Z,10.15
2022-09-14T07:15:22.786Z,13.43
2022-09-14T07:18:08.651Z,10.93
2022-09-14T07:20:55.475Z,8.60
2022-09-14T07:23:43.692Z,9.00
2022-09-14T07:26:32.307Z,10.40
2022-09-14T07:29:19.325Z,7.87
2022-09-14T07:32:05.925Z,10.25
2022-09-14T07:34:52.303Z,9.82
2022-09-14T07:37:38.594Z,11.30
2022-09-14T07:40:25.252Z,10.70
2022-09-14T07:43:12.356Z,10.45
2022-09-14T07:46:02.087Z,12.30
2022-09-14T07:48:49.307Z,9.70
2022-09-14T07:51:36.802Z,9.80
2022-09-14T07:54:23.098Z,13.55
2022-09-14T07:57:09.702Z,12.52
2022-09-14T07:59:58.512Z,10.02
2022-09-14T08:02:44.738Z,9.27
2022-09-14T08:05:31.337Z,7.80
2022-09-14T08:08:17.130Z,10.13
2022-09-14T08:11:07.781Z,8.88
2022-09-14T08:13:55.373Z,7.72
2022-09-14T08:16:41.735Z,9.45
2022-09-14T08:19:27.922Z,7.32
2022-09-14T08:22:13.657Z,11.25
2022-09-14T08:24:59.589Z,11.68
2022-09-14T08:27:45.471Z,11.00
2022-09-14T08:30:31.254Z,12.10
2022-09-14T08:33:17.122Z,10.85
2022-09-14T08:36:03.643Z,11.27
2022-09-14T08:38:49.722Z,13.13
2022-09-14T08:41:38.400Z,9.90
2022-09-14T08:44:30.696Z,13.50
2022-09-14T08:47:21.994Z,11.35
2022-09-14T08:50:11.410Z,11.85
2022-09-14T08:52:59.646Z,12.85
2022-09-14T08:55:49.629Z,11.18
2022-09-14T08:58:56.473Z,10.55
2022-09-14T09:02:03.268Z,8.43
2022-09-14T09:04:54.082Z,10.45
2022-09-14T09:07:56.374Z,15.55
2022-09-14T09:10:42.529Z,12.18
2022-09-14T09:13:31.703Z,13.73
2022-09-14T09:16:21.261Z,10.15
2022-09-14T09:19:13.043Z,10.15
2022-09-14T09:22:00.065Z,10.95
2022-09-14T09:24:50.457Z,12.52
2022-09-14T09:27:36.504Z,9.32
2022-09-14T09:30:22.520Z,10.18
2022-09-14T09:38:46.575Z,9.30
2022-09-14T09:50:01.099Z,13.15
2022-09-14T10:15:34.976Z,8.20
2022-09-14T10:32:32.694Z,10.57
2022-09-14T10:35:19.902Z,9.68
2022-09-14T11:59:32.963Z,9.10
2022-09-14T12:08:01.880Z,8.68
2022-09-14T12:11:09.501Z,7.50
2022-09-14T12:14:30.410Z,9.68
2022-09-14T12:17:38.859Z,8.60
2022-09-14T12:20:38.563Z,9.77
2022-09-14T12:23:37.220Z,6.43
2022-09-14T12:26:23.163Z,7.75
2022-09-14T12:29:31.760Z,9.50
2022-09-14T12:32:41.397Z,8.30
2022-09-14T12:35:40.031Z,6.72
2022-09-14T12:38:31.900Z,7.80
2022-09-14T12:41:17.900Z,8.20
2022-09-14T12:44:05.356Z,4.75
2022-09-14T12:46:51.654Z,4.87
2022-09-14T12:49:38.305Z,6.28
2022-09-14T12:52:38.489Z,5.78
2022-09-14T12:55:36.897Z,6.35
2022-09-14T12:58:26.782Z,4.12
2022-09-14T13:01:27.836Z,8.95
2022-09-14T13:04:25.160Z,6.55
2022-09-14T13:07:19.609Z,9.38
2022-09-14T13:10:06.849Z,8.95
2022-09-14T13:12:52.983Z,5.00
2022-09-14T13:15:59.149Z,5.32
2022-09-14T13:33:17.147Z,5.72
2022-09-14T13:36:04.205Z,4.97
2022-09-14T13:38:51.378Z,5.55
2022-09-14T13:41:42.954Z,4.37
2022-09-14T13:44:35.274Z,5.45
2022-09-14T13:47:24.337Z,6.68
2022-09-14T13:50:12.963Z,8.73
2022-09-14T13:53:04.148Z,3.97
2022-09-14T13:55:50.691Z,2.87
2022-09-14T13:58:37.202Z,4.50
2022-09-14T14:01:26.144Z,4.78
2022-09-14T14:04:39.144Z,4.65
2022-09-14T14:07:30.954Z,4.22
2022-09-14T14:10:32.859Z,7.65
2022-09-14T14:13:30.057Z,4.25
2022-09-14T14:16:22.367Z,6.18
2022-09-14T14:19:29.178Z,3.17
2022-09-14T14:22:30.682Z,3.35
2022-09-14T14:25:25.066Z,7.50
2022-09-14T16:06:30.569Z,6.45
2022-09-14T16:09:17.931Z,8.10
2022-09-14T16:12:04.094Z,5.90
2022-09-14T16:14:50.637Z,8.65
2022-09-14T16:17:36.428Z,6.57
2022-09-14T16:20:22.867Z,6.22
2022-09-14T16:23:09.161Z,7.37
2022-09-14T16:31:31.022Z,9.00
